Time;durP1;ratioP1;P1;durP2;ratioP2;P2;SDS_P1;SDS_P2;PMS_P1;PMS_P2;Temp;Humidity;BMP_temperature;BMP_pressure;BME280_temperature;BME280_humidity;BME280_pressure;Samples;Min_cycle;Max_cycle;Signal;HPM_P1;HPM_P2
2023/08/29 00:00:27;;;;;;;3.70;2.07;;;;;;;14.05;100.00;101291.16;4993263;28;20213;-80
2023/08/29 00:02:53;;;;;;;4.47;2.07;;;;;;;14.16;100.00;101307.53;4993306;28;20260;-80
2023/08/29 00:05:19;;;;;;;4.10;2.23;;;;;;;13.57;100.00;101231.09;4994819;28;20189;-80
2023/08/29 00:07:45;;;;;;;3.87;2.30;;;;;;;14.04;100.00;101305.69;4993796;28;20189;-80
2023/08/29 00:10:11;;;;;;;4.30;2.33;;;;;;;13.73;100.00;101277.50;4992749;28;20901;-80
2023/08/29 00:12:36;;;;;;;4.00;2.40;;;;;;;13.54;100.00;101236.91;4994734;28;20491;-79
2023/08/29 00:15:05;;;;;;;4.37;2.30;;;;;;;13.38;100.00;101236.50;4992080;28;21000;-80
2023/08/29 00:17:31;;;;;;;3.33;2.10;;;;;;;13.43;100.00;101221.34;5006075;28;20200;-80
2023/08/29 00:19:56;;;;;;;3.90;2.23;;;;;;;13.85;100.00;101310.06;4993086;28;20441;-79
2023/08/29 00:22:22;;;;;;;4.27;2.30;;;;;;;13.85;100.00;101304.66;4993436;28;20194;-79
2023/08/29 00:24:48;;;;;;;3.43;2.00;;;;;;;13.92;100.00;101298.25;4992240;28;20190;-80
2023/08/29 00:27:14;;;;;;;3.80;2.00;;;;;;;13.90;100.00;101302.19;4993663;28;20190;-80
2023/08/29 00:29:42;;;;;;;4.37;2.10;;;;;;;13.46;100.00;101212.03;4995688;28;20436;-80
2023/08/29 00:32:08;;;;;;;3.27;2.10;;;;;;;14.06;100.00;101296.34;4993328;28;20437;-79
2023/08/29 00:34:33;;;;;;;3.23;1.83;;;;;;;13.97;100.00;101290.34;4992991;28;20807;-79
2023/08/29 00:36:59;;;;;;;3.97;2.10;;;;;;;13.49;100.00;101204.34;4995110;28;20282;-80
2023/08/29 00:39:24;;;;;;;4.47;1.97;;;;;;;14.37;100.00;101290.22;4995034;28;20584;-80
2023/08/29 00:41:51;;;;;;;3.60;1.80;;;;;;;13.85;100.00;101165.28;4992396;28;20205;-80
2023/08/29 00:44:16;;;;;;;4.07;1.73;;;;;;;13.68;100.00;101197.28;4995235;28;20470;-80
2023/08/29 00:46:43;;;;;;;2.80;1.60;;;;;;;14.00;100.00;101272.88;4993441;28;20956;-80
2023/08/29 00:49:09;;;;;;;3.63;1.90;;;;;;;13.90;100.00;101227.50;4993616;28;20189;-80
2023/08/29 00:51:35;;;;;;;3.10;1.57;;;;;;;14.20;100.00;101271.00;4996185;28;20455;-79
2023/08/29 00:54:03;;;;;;;2.97;1.53;;;;;;;13.85;100.00;101223.78;4993910;28;20460;-80
2023/08/29 00:56:28;;;;;;;3.23;1.73;;;;;;;13.50;100.00;101152.09;4992949;28;20561;-79
2023/08/29 00:58:54;;;;;;;3.43;1.93;;;;;;;13.62;100.00;101202.66;4993915;28;20439;-79
2023/08/29 01:01:20;;;;;;;3.23;1.80;;;;;;;13.97;100.00;101276.00;4993395;28;20210;-80
2023/08/29 01:03:45;;;;;;;3.20;1.73;;;;;;;14.06;100.00;101268.53;4991459;28;20197;-79
2023/08/29 01:06:12;;;;;;;3.43;1.57;;;;;;;13.59;100.00;101170.75;4990874;28;20445;-79
2023/08/29 01:08:37;;;;;;;3.07;1.50;;;;;;;14.11;100.00;101266.84;4993857;28;20190;-79
2023/08/29 01:11:11;;;;;;;5.53;2.07;;;;;;;13.96;100.00;101223.13;4991855;28;20516;-79
2023/08/29 01:13:46;;;;;;;4.00;1.70;;;;;;;13.31;100.00;101108.00;4992692;28;20196;-79
2023/08/29 01:16:15;;;;;;;3.13;1.50;;;;;;;14.13;100.00;101266.66;4993026;28;20468;-79
2023/08/29 01:18:43;;;;;;;3.07;1.80;;;;;;;13.26;100.00;101106.97;4993734;28;20837;-79
2023/08/29 01:21:17;;;;;;;3.60;1.80;;;;;;;14.23;100.00;101258.94;4990790;28;20883;-79
2023/08/29 01:23:49;;;;;;;4.53;2.10;;;;;;;13.16;100.00;101115.44;5002481;28;20441;-79
2023/08/29 01:26:16;;;;;;;2.60;1.30;;;;;;;13.94;100.00;101238.69;4993054;28;20417;-79
2023/08/29 01:31:18;;;;;;;2.87;1.53;;;;;;;14.27;100.00;101268.28;5382301;23;20488;-77
2023/08/29 01:33:44;;;;;;;3.70;1.53;;;;;;;11.49;100.00;100809.88;5004497;28;20479;-77
2023/08/29 01:36:10;;;;;;;3.40;1.70;;;;;;;11.53;100.00;100873.69;5011546;28;20893;-78
2023/08/29 01:38:35;;;;;;;3.57;1.67;;;;;;;12.92;100.00;101100.75;4987751;28;20491;-78
2023/08/29 01:41:01;;;;;;;3.40;1.60;;;;;;;11.83;100.00;100916.34;4969343;28;20272;-77
2023/08/29 01:43:26;;;;;;;2.60;1.40;;;;;;;13.00;100.00;101126.66;4877078;29;20212;-78
2023/08/29 01:45:52;;;;;;;2.90;1.30;;;;;;;12.08;100.00;100973.03;4776570;29;20203;-78
2023/08/29 01:48:17;;;;;;;2.90;1.80;;;;;;;14.00;100.00;101240.53;4649230;30;1337448;-78
2023/08/29 01:50:44;;;;;;;3.07;1.50;;;;;;;11.69;100.00;100855.56;4563580;30;20227;-78
2023/08/29 01:53:09;;;;;;;2.73;1.33;;;;;;;13.16;100.00;101118.13;4606914;30;20304;-78
2023/08/29 01:55:37;;;;;;;3.13;1.63;;;;;;;12.19;100.00;100923.19;4576206;31;21102;-78
2023/08/29 01:58:04;;;;;;;2.90;1.30;;;;;;;11.77;100.00;100856.19;4588577;31;20197;-78
2023/08/29 02:00:31;;;;;;;3.10;1.40;;;;;;;12.75;100.00;101038.44;4588950;31;20485;-78
2023/08/29 02:02:57;;;;;;;2.50;1.23;;;;;;;12.52;100.00;100982.34;4576027;31;20939;-78
2023/08/29 02:05:22;;;;;;;2.83;1.43;;;;;;;13.12;100.00;101133.88;4578976;31;20537;-78
2023/08/29 02:07:49;;;;;;;3.87;1.87;;;;;;;14.57;100.00;101306.38;4590153;31;20193;-78
2023/08/29 02:10:14;;;;;;;4.37;1.73;;;;;;;13.68;100.00;101151.47;4587575;31;20280;-78
2023/08/29 02:12:40;;;;;;;4.00;1.63;;;;;;;12.07;100.00;100873.78;4587003;31;20878;-77
2023/08/29 02:15:06;;;;;;;3.10;1.90;;;;;;;13.82;100.00;101144.13;4573515;31;20698;-77
2023/08/29 02:17:33;;;;;;;2.23;1.20;;;;;;;13.64;100.00;101162.88;4574601;31;20268;-77
2023/08/29 02:19:58;;;;;;;3.03;1.43;;;;;;;12.82;100.00;101047.34;4587422;31;20533;-77
2023/08/29 02:22:23;;;;;;;2.97;1.40;;;;;;;13.94;100.00;101233.28;4574403;31;20803;-77
2023/08/29 02:24:49;;;;;;;2.57;1.30;;;;;;;12.50;100.00;101030.19;4587211;31;20200;-77
2023/08/29 02:27:14;;;;;;;3.00;1.20;;;;;;;13.24;100.00;101158.31;4573977;31;20197;-77
2023/08/29 02:29:40;;;;;;;2.43;1.37;;;;;;;15.10;100.00;101446.63;4587150;31;20201;-77
2023/08/29 02:32:05;;;;;;;2.93;1.30;;;;;;;14.27;100.00;101295.25;4574442;31;20217;-77
2023/08/29 02:34:31;;;;;;;3.90;1.33;;;;;;;14.28;100.00;101306.88;4587175;31;20198;-77
2023/08/29 02:36:56;;;;;;;4.47;1.50;;;;;;;13.76;100.00;101250.94;4574039;31;20293;-77
2023/08/29 02:39:23;;;;;;;2.70;1.00;;;;;;;12.41;100.00;101067.22;4586024;31;20755;-77
2023/08/29 02:41:48;;;;;;;2.30;1.00;;;;;;;13.76;100.00;101321.03;4585808;31;20284;-77
2023/08/29 02:44:14;;;;;;;3.60;1.20;;;;;;;12.91;100.00;101177.19;4585841;31;20457;-77
2023/08/29 02:46:39;;;;;;;2.80;1.20;;;;;;;12.91;100.00;101198.72;4587517;31;20747;-77
2023/08/29 02:49:05;;;;;;;3.60;1.40;;;;;;;13.56;100.00;101269.00;4609454;30;20240;-78
2023/08/29 02:51:30;;;;;;;1.97;0.80;;;;;;;13.00;100.00;101216.34;4671011;30;20232;-78
2023/08/29 02:53:55;;;;;;;2.13;0.80;;;;;;;13.72;100.00;101327.91;4623267;30;20257;-77
2023/08/29 02:56:21;;;;;;;3.10;0.80;;;;;;;12.40;100.00;101105.88;4658113;30;20288;-78
2023/08/29 02:58:46;;;;;;;2.97;0.80;;;;;;;12.97;100.00;101221.31;4630705;30;20624;-77
2023/08/29 03:01:12;;;;;;;2.10;0.70;;;;;;;14.24;100.00;101441.38;4661294;30;20222;-77
2023/08/29 03:03:38;;;;;;;1.90;0.70;;;;;;;14.12;100.00;101429.56;4662034;30;20278;-77
2023/08/29 03:06:04;;;;;;;2.20;0.90;;;;;;;14.94;100.00;101532.72;4661971;30;20662;-77
2023/08/29 03:08:29;;;;;;;2.73;0.70;;;;;;;12.91;100.00;101257.94;4662207;30;20291;-77
2023/08/29 03:10:55;;;;;;;1.60;0.60;;;;;;;13.82;100.00;101405.66;4658658;30;20241;-77
2023/08/29 03:13:21;;;;;;;2.33;0.70;;;;;;;13.43;100.00;101341.78;4631305;30;20921;-77
2023/08/29 03:15:47;;;;;;;1.83;0.60;;;;;;;12.38;100.00;101209.34;4659016;30;20277;-77
2023/08/29 03:18:13;;;;;;;2.00;0.80;;;;;;;12.94;100.00;101235.19;4659042;30;20449;-77
2023/08/29 03:20:43;;;;;;;2.80;0.60;;;;;;;14.01;100.00;101404.03;4661077;30;20572;-77
2023/08/29 03:23:08;;;;;;;2.33;0.60;;;;;;;14.00;100.00;101389.72;4632760;30;20442;-78
2023/08/29 03:25:33;;;;;;;2.10;0.80;;;;;;;12.58;100.00;101177.97;4658632;30;20439;-77
2023/08/29 03:27:59;;;;;;;2.07;0.80;;;;;;;12.63;100.00;101282.28;4660575;30;20757;-77
2023/08/29 03:30:28;;;;;;;1.80;0.70;;;;;;;12.98;100.00;101361.09;4633421;30;20261;-77
2023/08/29 03:32:53;;;;;;;1.97;0.70;;;;;;;13.46;100.00;101369.16;4660116;30;20669;-77
2023/08/29 03:35:19;;;;;;;1.70;0.60;;;;;;;12.93;100.00;101303.50;4635185;30;20514;-77
2023/08/29 03:37:45;;;;;;;2.53;0.70;;;;;;;13.16;100.00;101303.16;4635343;30;20210;-77
2023/08/29 03:40:11;;;;;;;2.50;1.07;;;;;;;11.96;100.00;101136.78;4665882;30;20475;-77
2023/08/29 03:42:37;;;;;;;2.63;0.70;;;;;;;13.16;100.00;101328.22;4637396;30;20207;-77
2023/08/29 03:45:03;;;;;;;1.80;0.70;;;;;;;12.58;100.00;101198.66;4634207;30;20512;-77
2023/08/29 03:47:29;;;;;;;2.90;0.70;;;;;;;13.51;100.00;101357.72;4635758;30;20250;-77
2023/08/29 03:49:54;;;;;;;2.25;0.70;;;;;;;12.89;100.00;101303.09;4679587;29;1170027;-78
2023/08/29 03:52:26;;;;;;;2.47;0.83;;;;;;;13.42;100.00;101338.25;4813638;29;20201;-77
2023/08/29 03:54:56;;;;;;;4.53;0.90;;;;;;;12.58;100.00;101220.19;4783747;29;20181;-77
2023/08/29 03:57:27;;;;;;;2.10;0.80;;;;;;;12.17;100.00;101148.44;4770672;30;20447;-77
2023/08/29 03:59:53;;;;;;;2.57;0.80;;;;;;;12.78;100.00;101296.41;4783705;29;20475;-77
2023/08/29 04:02:20;;;;;;;2.50;1.00;;;;;;;12.71;100.00;101321.66;4770319;30;20534;-77
2023/08/29 04:04:45;;;;;;;1.90;0.80;;;;;;;11.86;100.00;101190.13;4774400;29;20944;-77
2023/08/29 04:07:11;;;;;;;2.33;0.90;;;;;;;13.14;100.00;101343.78;4770522;30;20562;-77
2023/08/29 04:09:37;;;;;;;2.00;0.80;;;;;;;12.56;100.00;101292.22;4772501;30;20190;-77
2023/08/29 04:12:02;;;;;;;2.40;1.00;;;;;;;12.11;100.00;101240.69;4770080;30;20255;-77
2023/08/29 04:14:28;;;;;;;2.00;0.83;;;;;;;13.20;100.00;101425.63;4770033;30;20190;-77
2023/08/29 04:16:53;;;;;;;2.40;0.97;;;;;;;12.58;100.00;101320.59;4783949;29;20768;-77
2023/08/29 04:19:20;;;;;;;2.77;1.07;;;;;;;13.58;100.00;101471.78;4784155;29;20194;-77
2023/08/29 04:21:45;;;;;;;2.13;0.90;;;;;;;14.35;100.00;101586.47;4769787;30;20274;-77
2023/08/29 04:24:11;;;;;;;2.73;1.00;;;;;;;12.76;100.00;101398.09;4770263;30;20443;-77
2023/08/29 04:26:36;;;;;;;2.93;0.90;;;;;;;12.27;100.00;101287.94;4783633;29;20236;-77
2023/08/29 04:29:02;;;;;;;3.03;0.90;;;;;;;13.07;100.00;101446.06;4783610;29;20202;-77
2023/08/29 04:31:27;;;;;;;2.20;0.80;;;;;;;12.42;100.00;101312.84;4769650;30;20217;-77
2023/08/29 04:33:53;;;;;;;2.13;0.87;;;;;;;11.66;100.00;101208.78;4783891;30;20186;-77
2023/08/29 04:36:18;;;;;;;3.07;1.20;;;;;;;12.87;100.00;101408.31;4783688;29;20214;-77
2023/08/29 04:38:53;;;;;;;2.10;0.90;;;;;;;11.44;100.00;101143.53;4769602;30;20250;-77
2023/08/29 04:41:19;;;;;;;2.50;1.10;;;;;;;12.31;100.00;101332.22;4769772;30;20214;-77
2023/08/29 04:43:44;;;;;;;3.17;1.30;;;;;;;12.15;100.00;101318.09;4783395;29;20500;-77
2023/08/29 04:46:10;;;;;;;3.00;1.50;;;;;;;11.65;100.00;101258.16;4783102;29;20194;-77
2023/08/29 04:48:36;;;;;;;3.10;1.63;;;;;;;12.35;100.00;101363.94;4773650;29;20216;-77
2023/08/29 04:51:02;;;;;;;2.83;1.30;;;;;;;12.87;100.00;101380.53;4901790;29;20837;-77
2023/08/29 04:53:28;;;;;;;4.20;1.63;;;;;;;11.75;100.00;101191.47;4946230;28;20522;-76
2023/08/29 04:56:01;;;;;;;4.00;1.47;;;;;;;11.53;100.00;101205.97;4938687;29;20595;-77
2023/08/29 04:58:28;;;;;;;3.10;1.43;;;;;;;12.46;100.00;101361.69;4933987;29;20431;-77
2023/08/29 05:00:53;;;;;;;2.93;1.50;;;;;;;11.12;100.00;101118.09;4948569;28;20459;-77
2023/08/29 05:03:19;;;;;;;8.27;2.07;;;;;;;12.28;100.00;101321.88;4949219;28;20435;-77
2023/08/29 05:05:48;;;;;;;3.40;1.60;;;;;;;12.97;100.00;101453.69;4935107;29;20184;-77
2023/08/29 05:08:13;;;;;;;3.10;1.60;;;;;;;13.60;100.00;101502.06;4934091;29;20532;-77
2023/08/29 05:10:40;;;;;;;2.93;1.40;;;;;;;13.10;100.00;101399.91;4934531;29;20487;-77
2023/08/29 05:13:05;;;;;;;4.87;1.90;;;;;;;13.24;100.00;101451.13;4941945;28;20191;-77
2023/08/29 05:15:32;;;;;;;2.93;1.67;;;;;;;12.65;100.00;101369.88;4948979;28;20473;-77
2023/08/29 05:17:58;;;;;;;3.23;1.70;;;;;;;13.06;100.00;101360.94;4932292;29;20660;-77
2023/08/29 05:20:23;;;;;;;4.70;1.93;;;;;;;12.61;100.00;101268.22;4932878;29;20466;-77
2023/08/29 05:22:49;;;;;;;3.40;1.87;;;;;;;13.59;100.00;101434.88;4931546;29;20191;-77
2023/08/29 05:25:14;;;;;;;3.80;1.90;;;;;;;14.16;100.00;101546.81;4932521;29;20199;-77
2023/08/29 05:27:40;;;;;;;3.23;1.57;;;;;;;13.41;100.00;101403.94;4931447;29;20201;-77
2023/08/29 05:30:07;;;;;;;3.93;2.00;;;;;;;13.43;100.00;101409.16;4931614;29;20203;-77
2023/08/29 05:32:33;;;;;;;2.93;1.70;;;;;;;13.54;100.00;101435.50;4946805;28;20671;-77
2023/08/29 05:34:58;;;;;;;3.93;2.20;;;;;;;13.99;100.00;101460.88;4932129;29;20432;-77
2023/08/29 05:37:24;;;;;;;3.67;1.97;;;;;;;14.25;100.00;101497.81;4932844;29;20229;-77
2023/08/29 05:39:50;;;;;;;4.07;1.90;;;;;;;14.73;100.00;101552.69;4945225;28;20270;-77
2023/08/29 05:42:15;;;;;;;3.83;2.37;;;;;;;13.82;100.00;101396.75;4932612;29;20818;-77
2023/08/29 05:44:41;;;;;;;3.70;1.97;;;;;;;13.91;100.00;101435.97;4931214;29;20262;-77
2023/08/29 05:47:06;;;;;;;4.20;1.87;;;;;;;14.68;100.00;101547.91;4932045;29;20187;-77
2023/08/29 05:49:31;;;;;;;2.60;1.50;;;;;;;13.73;100.00;101370.00;4927359;29;20196;-77
2023/08/29 05:51:57;;;;;;;3.47;2.07;;;;;;;14.78;100.00;101534.81;4933043;28;20210;-77
2023/08/29 05:54:23;;;;;;;4.60;2.07;;;;;;;14.17;100.00;101418.94;4965214;28;20734;-77
2023/08/29 05:56:48;;;;;;;4.60;2.23;;;;;;;14.34;100.00;101451.75;4959944;28;20888;-77
2023/08/29 05:59:15;;;;;;;3.27;2.10;;;;;;;13.95;100.00;101386.81;4962217;28;20438;-77
2023/08/29 06:01:40;;;;;;;3.50;1.93;;;;;;;14.69;100.00;101522.53;4962442;28;20259;-76
2023/08/29 06:04:06;;;;;;;7.87;2.00;;;;;;;14.11;100.00;101400.91;4961435;28;20439;-77
2023/08/29 06:06:31;;;;;;;3.60;2.13;;;;;;;14.23;100.00;101423.50;4962029;28;20245;-77
2023/08/29 06:08:59;;;;;;;3.90;2.23;;;;;;;13.81;100.00;101346.56;4961157;28;20718;-77
2023/08/29 06:11:25;;;;;;;4.50;1.80;;;;;;;14.32;100.00;101478.09;4967756;28;20217;-77
2023/08/29 06:13:51;;;;;;;4.37;1.80;;;;;;;13.94;100.00;101401.34;4959840;28;20734;-77
2023/08/29 06:16:16;;;;;;;3.03;1.80;;;;;;;14.07;100.00;101399.69;4961913;28;20553;-77
2023/08/29 06:18:42;;;;;;;2.90;1.73;;;;;;;14.77;100.00;101526.91;4964347;28;20186;-77
2023/08/29 06:21:07;;;;;;;3.63;2.27;;;;;;;14.15;100.00;101411.09;4961975;28;20722;-77
2023/08/29 06:23:34;;;;;;;2.77;1.80;;;;;;;14.16;100.00;101387.63;4959452;28;20186;-77
2023/08/29 06:25:59;;;;;;;3.43;2.07;;;;;;;14.49;100.00;101436.16;4968226;28;20246;-77
2023/08/29 06:28:25;;;;;;;2.80;1.77;;;;;;;15.17;100.00;101543.03;4961465;28;20427;-77
2023/08/29 06:30:50;;;;;;;3.20;2.10;;;;;;;14.48;100.00;101426.41;4960086;28;20207;-77
2023/08/29 06:33:16;;;;;;;2.80;1.80;;;;;;;15.05;100.00;101505.88;4960066;28;20737;-77
2023/08/29 06:35:42;;;;;;;4.40;2.20;;;;;;;14.05;100.00;101329.75;4960103;28;20628;-77
2023/08/29 06:38:07;;;;;;;3.00;1.63;;;;;;;14.79;100.00;101468.94;4959154;28;20187;-77
2023/08/29 06:40:33;;;;;;;3.20;1.90;;;;;;;14.72;100.00;101468.13;4959207;28;20449;-77
2023/08/29 06:42:59;;;;;;;4.40;1.67;;;;;;;15.09;100.00;101509.78;4967921;28;20193;-77
2023/08/29 06:45:24;;;;;;;4.00;1.97;;;;;;;14.97;100.00;101486.34;4959453;28;20433;-77
2023/08/29 06:47:49;;;;;;;2.93;1.57;;;;;;;14.66;100.00;101433.88;4960506;28;20229;-77
2023/08/29 06:50:16;;;;;;;3.97;1.60;;;;;;;14.36;100.00;101409.19;4954170;28;20296;-77
2023/08/29 06:52:41;;;;;;;2.50;1.10;;;;;;;14.54;100.00;101451.75;4951911;28;20228;-77
2023/08/29 06:55:09;;;;;;;2.90;1.50;;;;;;;14.38;100.00;101424.13;4960478;28;20836;-77
2023/08/29 06:57:35;;;;;;;2.83;1.20;;;;;;;15.21;100.00;101518.06;4943250;28;20187;-77
2023/08/29 07:00:00;;;;;;;2.73;1.20;;;;;;;14.88;100.00;101450.66;4949498;28;20461;-77
2023/08/29 07:02:26;;;;;;;2.73;1.33;;;;;;;14.96;100.00;101439.63;4961080;28;20199;-77
2023/08/29 07:04:51;;;;;;;3.80;1.57;;;;;;;15.02;100.00;101487.38;4950595;28;20182;-77
2023/08/29 07:07:16;;;;;;;2.40;1.13;;;;;;;14.99;100.00;101465.38;4951418;28;20190;-77
2023/08/29 07:09:43;;;;;;;2.57;1.10;;;;;;;14.82;100.00;101409.13;4960983;28;20267;-77
2023/08/29 07:12:08;;;;;;;2.30;0.90;;;;;;;15.40;100.00;101488.50;4947298;28;20175;-77
2023/08/29 07:14:34;;;;;;;2.97;1.27;;;;;;;15.82;100.00;101533.88;4960642;28;20986;-77
2023/08/29 07:16:59;;;;;;;2.77;1.03;;;;;;;15.30;100.00;101445.69;4959264;28;20217;-77
2023/08/29 07:19:25;;;;;;;2.10;0.90;;;;;;;15.81;100.00;101528.66;4945414;28;20326;-77
2023/08/29 07:21:50;;;;;;;3.00;0.97;;;;;;;15.98;100.00;101529.81;4945831;28;20257;-77
2023/08/29 07:24:16;;;;;;;2.10;0.90;;;;;;;16.18;100.00;101545.91;4960115;28;20187;-77
2023/08/29 07:26:41;;;;;;;2.30;1.00;;;;;;;16.16;100.00;101536.34;4958893;28;20317;-77
2023/08/29 07:29:06;;;;;;;2.77;0.97;;;;;;;15.31;100.00;101377.09;4946279;28;20175;-77
2023/08/29 07:31:32;;;;;;;2.00;0.93;;;;;;;16.16;100.00;101495.75;4944653;28;20213;-77
2023/08/29 07:33:57;;;;;;;2.57;1.20;;;;;;;15.80;100.00;101437.75;4948473;28;20237;-77
2023/08/29 07:36:23;;;;;;;2.83;1.17;;;;;;;15.55;100.00;101370.06;4950907;28;20695;-77
2023/08/29 07:38:48;;;;;;;3.57;1.33;;;;;;;15.78;100.00;101394.69;4942698;28;20183;-77
2023/08/29 07:41:14;;;;;;;2.47;0.93;;;;;;;15.89;100.00;101378.81;4959346;28;20289;-77
2023/08/29 07:43:40;;;;;;;4.20;1.10;;;;;;;16.05;100.00;101372.81;4944945;28;20193;-77
2023/08/29 07:46:05;;;;;;;2.93;1.20;;;;;;;16.10;100.00;101389.22;4950040;28;20433;-77
2023/08/29 07:48:31;;;;;;;3.07;1.00;;;;;;;15.77;100.00;101349.75;4959321;28;20186;-76
2023/08/29 07:50:57;;;;;;;2.60;0.90;;;;;;;16.07;100.00;101367.19;4957796;28;20214;-77
2023/08/29 07:53:22;;;;;;;2.33;0.97;;;;;;;16.48;100.00;101437.78;4959140;28;20431;-77
2023/08/29 07:55:47;;;;;;;3.30;0.90;;;;;;;15.67;100.00;101262.03;4958302;28;20214;-77
2023/08/29 07:58:13;;;;;;;2.80;0.90;;;;;;;16.02;100.00;101317.25;4960622;28;20253;-77
2023/08/29 08:00:38;;;;;;;2.20;0.83;;;;;;;16.12;100.00;101324.06;4953641;28;20723;-77
2023/08/29 08:03:04;;;;;;;1.90;0.70;;;;;;;16.10;100.00;101316.16;4949985;28;20651;-77
2023/08/29 08:05:30;;;;;;;2.10;0.60;;;;;;;16.82;100.00;101432.88;4945526;28;20191;-77
2023/08/29 08:07:56;;;;;;;2.50;0.80;;;;;;;15.85;100.00;101264.78;4954102;28;20785;-77
2023/08/29 08:10:22;;;;;;;2.10;0.80;;;;;;;17.05;100.00;101393.44;4944380;28;20211;-77
2023/08/29 08:12:48;;;;;;;2.27;0.73;;;;;;;16.36;100.00;101274.44;4960912;28;20934;-77
2023/08/29 08:15:14;;;;;;;2.27;1.00;;;;;;;16.66;100.00;101298.00;4961659;28;20190;-77
2023/08/29 08:17:40;;;;;;;2.80;0.90;;;;;;;16.94;100.00;101297.47;4950168;28;20429;-77
2023/08/29 08:20:09;;;;;;;2.30;0.80;;;;;;;16.37;100.00;101221.13;4957795;28;20542;-77
2023/08/29 08:22:37;;;;;;;2.10;0.83;;;;;;;17.06;100.00;101311.88;4952871;28;20183;-77
2023/08/29 08:25:04;;;;;;;2.70;1.10;;;;;;;16.34;100.00;101154.72;4961492;28;20431;-77
2023/08/29 08:27:32;;;;;;;2.40;0.90;;;;;;;16.68;100.00;101203.81;4954284;28;20430;-77
2023/08/29 08:29:57;;;;;;;2.30;0.80;;;;;;;17.02;100.00;101271.94;4962412;28;21013;-77
2023/08/29 08:32:23;;;;;;;2.97;0.80;;;;;;;17.10;100.00;101256.19;4948207;28;20419;-77
2023/08/29 08:34:48;;;;;;;2.83;1.20;;;;;;;16.74;100.00;101205.59;4961941;28;20190;-77
2023/08/29 08:37:14;;;;;;;2.30;0.70;;;;;;;17.13;100.00;101235.91;4961292;28;20270;-77
2023/08/29 08:39:40;;;;;;;2.37;0.70;;;;;;;16.61;100.00;101119.97;4953069;28;20190;-78
2023/08/29 08:42:06;;;;;;;3.37;0.80;;;;;;;16.98;100.00;101165.06;4962574;28;20934;-78
2023/08/29 08:44:34;;;;;;;3.17;0.80;;;;;;;16.63;100.00;101101.59;4952854;28;20187;-77
2023/08/29 08:47:00;;;;;;;2.47;0.70;;;;;;;16.94;100.00;101132.19;4961429;28;21733;-77
2023/08/29 08:49:26;;;;;;;2.53;0.73;;;;;;;17.25;100.00;101171.69;4945291;28;20442;-78
2023/08/29 08:51:52;;;;;;;2.80;0.80;;;;;;;16.64;100.00;101048.28;4942815;28;20550;-77
2023/08/29 08:54:18;;;;;;;2.80;0.77;;;;;;;16.86;100.00;101117.09;4943188;28;20441;-77
2023/08/29 08:56:44;;;;;;;3.00;0.70;;;;;;;16.65;100.00;101074.28;4944763;28;20475;-77
2023/08/29 08:59:09;;;;;;;2.30;0.77;;;;;;;17.20;100.00;101155.31;4950793;28;20242;-77
2023/08/29 09:01:35;;;;;;;1.90;0.70;;;;;;;16.84;100.00;101051.50;4942503;28;20819;-77
2023/08/29 09:04:01;;;;;;;2.67;0.70;;;;;;;17.36;100.00;101113.13;4957119;28;20192;-77
2023/08/29 09:06:27;;;;;;;2.47;0.80;;;;;;;17.59;100.00;101152.94;4957125;28;20187;-77
2023/08/29 09:08:56;;;;;;;2.63;0.73;;;;;;;16.92;100.00;101006.97;4942768;28;20187;-77
2023/08/29 09:11:21;;;;;;;2.40;0.77;;;;;;;17.14;100.00;101045.13;4949733;28;20274;-78
2023/08/29 09:13:48;;;;;;;2.70;0.70;;;;;;;17.57;100.00;101109.78;4941160;28;20435;-77
2023/08/29 09:16:14;;;;;;;2.20;0.90;;;;;;;16.92;100.00;101002.38;4951184;28;20678;-78
2023/08/29 09:18:43;;;;;;;2.00;0.87;;;;;;;17.60;100.00;101063.19;4940291;28;20430;-77
2023/08/29 09:21:18;;;;;;;5.10;1.40;;;;;;;17.00;100.00;100986.81;4942142;28;20236;-77
2023/08/29 09:23:44;;;;;;;2.70;0.83;;;;;;;16.89;100.00;100986.59;4940669;28;20856;-77
2023/08/29 09:26:13;;;;;;;2.83;1.03;;;;;;;16.86;100.00;100997.88;4949237;28;20444;-77
2023/08/29 09:28:40;;;;;;;2.00;0.77;;;;;;;17.06;100.00;101005.66;4941805;28;20443;-77
2023/08/29 09:31:07;;;;;;;2.67;1.00;;;;;;;16.89;100.00;100910.75;4948854;28;21152;-78
2023/08/29 09:33:33;;;;;;;2.10;0.70;;;;;;;17.54;100.00;100998.25;4956989;28;20469;-77
2023/08/29 09:36:05;;;;;;;2.70;0.97;;;;;;;17.86;100.00;101035.78;4956480;28;20517;-77
2023/08/29 09:38:32;;;;;;;2.10;0.70;;;;;;;17.25;100.00;100935.84;4959493;28;20519;-78
2023/08/29 09:40:58;;;;;;;2.00;0.73;;;;;;;18.03;100.00;101036.66;4949406;28;20451;-78
2023/08/29 09:43:27;;;;;;;2.70;0.97;;;;;;;17.15;100.00;100911.25;4958008;28;20856;-78
2023/08/29 09:45:53;;;;;;;2.60;1.00;;;;;;;17.90;100.00;101020.66;4941309;28;20450;-78
2023/08/29 09:48:19;;;;;;;2.20;0.80;;;;;;;16.85;100.00;100841.03;4943218;28;20466;-78
2023/08/29 09:50:45;;;;;;;2.27;0.80;;;;;;;18.00;100.00;101027.09;4955760;28;20547;-77
2023/08/29 09:53:16;;;;;;;2.53;0.70;;;;;;;17.42;100.00;100899.84;4942325;28;20192;-77
2023/08/29 09:55:48;;;;;;;2.47;0.70;;;;;;;18.03;100.00;100947.09;4941319;28;20481;-77
2023/08/29 09:58:16;;;;;;;1.87;0.80;;;;;;;16.80;100.00;100779.44;4942410;28;20447;-77
2023/08/29 10:00:42;;;;;;;2.53;0.77;;;;;;;18.50;100.00;100965.75;4953142;28;20456;-77
2023/08/29 10:03:09;;;;;;;3.40;0.80;;;;;;;18.12;100.00;100871.50;4942000;28;20439;-77
2023/08/29 10:05:40;;;;;;;1.90;0.60;;;;;;;17.96;100.00;100818.88;4942755;28;20444;-78
2023/08/29 10:08:11;;;;;;;2.43;0.80;;;;;;;18.82;100.00;100941.53;4939611;28;20450;-78
2023/08/29 10:10:40;;;;;;;2.50;0.70;;;;;;;17.33;100.00;100745.72;4941705;28;20994;-78
2023/08/29 10:13:08;;;;;;;2.57;0.70;;;;;;;18.50;100.00;100938.59;4949676;28;20440;-77
2023/08/29 10:15:34;;;;;;;2.00;0.60;;;;;;;18.00;100.00;100833.59;4942133;28;20558;-78
2023/08/29 10:18:00;;;;;;;2.10;0.60;;;;;;;18.58;100.00;100927.31;4940775;28;20428;-78
2023/08/29 10:20:26;;;;;;;2.43;0.80;;;;;;;18.14;100.00;100891.91;4948477;28;20792;-78
2023/08/29 10:22:54;;;;;;;1.70;0.60;;;;;;;18.00;100.00;100836.31;4945129;28;20679;-78
2023/08/29 10:25:21;;;;;;;1.70;0.60;;;;;;;17.94;100.00;100850.88;4948200;28;20431;-77
2023/08/29 10:27:48;;;;;;;1.60;0.60;;;;;;;18.08;100.00;100887.47;4955901;28;20450;-78
2023/08/29 10:30:14;;;;;;;2.37;0.60;;;;;;;17.75;100.00;100801.41;4942959;28;20455;-77
2023/08/29 10:32:41;;;;;;;1.97;0.70;;;;;;;18.50;100.00;100862.53;4939877;28;20446;-77
2023/08/29 10:35:17;;;;;;;1.57;0.60;;;;;;;18.55;100.00;100862.63;4940344;28;21194;-78
2023/08/29 10:37:42;;;;;;;2.00;0.60;;;;;;;18.03;100.00;100751.69;4956140;28;20509;-78
2023/08/29 10:40:11;;;;;;;3.30;0.80;;;;;;;18.52;100.00;100806.09;4955039;28;20534;-78
2023/08/29 10:42:57;;;;;;;2.00;0.60;;;;;;;18.90;100.00;100843.25;4948735;28;20232;-78
2023/08/29 10:45:48;;;;;;;2.00;0.80;;;;;;;18.62;100.00;100840.69;4942037;28;20438;-77
2023/08/29 10:48:39;;;;;;;1.80;0.60;;;;;;;18.89;100.00;100824.47;4941306;28;21014;-77
2023/08/29 10:51:10;;;;;;;3.20;0.60;;;;;;;19.20;100.00;100806.59;4939920;28;20451;-78
2023/08/29 10:54:05;;;;;;;1.93;0.60;;;;;;;19.42;100.00;100809.25;4942576;28;20431;-78
2023/08/29 10:56:42;;;;;;;2.20;0.80;;;;;;;19.05;100.00;100712.13;4941562;28;20499;-77
2023/08/29 10:59:28;;;;;;;2.27;0.80;;;;;;;19.18;100.00;100796.00;4956870;28;20434;-77
2023/08/29 11:02:27;;;;;;;2.80;0.70;;;;;;;19.17;100.00;100797.03;4939603;28;20454;-77
2023/08/29 11:05:14;;;;;;;8.40;0.90;;;;;;;18.89;100.00;100753.81;4955864;28;20530;-77
2023/08/29 11:07:39;;;;;;;2.80;0.70;;;;;;;18.87;100.00;100737.78;4956088;28;20434;-77
2023/08/29 11:10:21;;;;;;;1.80;0.60;;;;;;;19.38;100.00;100786.34;4938352;28;20964;-78
2023/08/29 11:13:09;;;;;;;2.77;0.80;;;;;;;19.32;100.00;100788.22;4946690;28;20191;-77
2023/08/29 11:15:47;;;;;;;2.20;0.70;;;;;;;19.47;100.00;100779.38;4938108;28;20507;-77
2023/08/29 11:18:34;;;;;;;2.37;0.97;;;;;;;18.88;100.00;100782.88;4938012;28;20940;-77